Highland Beach, Florida
Current Conditions -  °F | °C
As of 9:50 PM on Thursday 23 Oct 2014 (Local Time) from KBCT Reporting Station
Overcast Overcast  
Wind Chill: 77°   Ceiling: 3200
Heat Index: 79°   Visibility: 10mi
Dew Point: 66°   Wind: 17mph
Humidity: 69%   Direction: 60°ENE
Pressure: 29.93"   Gusts: NA
Location:  26.4095°N, 80.0961°W
Report Text: KBCT 240150Z 06015KT 10SM OVC032 25/19 A2993
Loading
Personal Weather Stations






























Interactive Weather Map New forecast layout! Learn more

10-Day Weather Forecast

Advertisements
Track Severe Weather on mobile